Latest Weather Observations for The Monument

IDQ60801

Issued at 4:35 pm EST Sunday 20 April 2014 (issued every 30 minutes, with the page automatically refreshed every 10 minutes)

About weather observations | Map of weather stations | Latest weather observations for QLD | Other Formats
Station Details ID: 037034 Name: THE MONUMENT AIRPORT Lat: -21.81 Lon: 139.93 Height: 288.4 m
Data from the previous 72 hours. | See also: Recent months at The Monument
Date/Time
EST
Temp
°C
App
Temp
°C
Dew
Point
Rel
Hum
%
Delta-T
°C
Wind Press
QNH
hPa
Press
MSL
hPa
Rain
since 9 am
mm
Dir
 
Spd
km/h
Gust
km/h
Spd
kts
Gust
kts
20/04:30pm 30.9 - - - - SSE 13 22 7 12 1014.2 - 0.0
20/04:00pm 31.5 - - - - S 11 17 6 9 1014.0 - 0.0
20/03:30pm 31.5 - - - - S 13 22 7 12 1014.0 - 0.0
20/03:00pm 32.2 - - - - SSE 17 28 9 15 1014.1 1012.5 0.0
20/02:30pm 31.2 - - - - SE 13 24 7 13 1014.4 - 0.0
20/02:00pm 31.5 - - - - SSE 11 24 6 13 1014.7 - 0.0
20/01:30pm 31.1 - - - - S 15 24 8 13 1015.2 - 0.0
20/01:00pm 30.1 - - - - SE 17 26 9 14 1015.7 - 0.0
20/12:30pm 29.6 - - - - SSE 20 28 11 15 1016.2 - 0.0
20/12:00pm 29.5 - - - - ESE 19 26 10 14 1016.9 1015.3 0.0
20/11:30am 28.7 - - - - ESE 20 30 11 16 1017.5 - 0.0
20/11:00am 27.6 - - - - SE 20 30 11 16 1017.9 - 0.0
20/10:30am 26.5 - - - - ESE 24 32 13 17 1018.2 - 0.0
20/10:00am 25.5 - - - - ESE 22 32 12 17 1018.3 - 0.0
20/09:30am 23.6 - - - - ESE 24 33 13 18 1018.3 - 0.0
20/09:00am 22.2 - - - - SE 20 28 11 15 1018.2 1016.7 0.0
20/08:30am 20.6 - - - - SSE 13 20 7 11 1017.9 - 0.0
20/08:00am 17.5 - - - - S 7 11 4 6 1017.6 - 0.0
20/07:30am 15.1 - - - - CALM 0 0 0 0 1017.2 - 0.0
20/07:00am 14.1 - - - - S 7 9 4 5 1016.9 - 0.0
20/06:30am 15.0 - - - - S 11 13 6 7 1016.5 - 0.0
20/06:00am 14.8 - - - - SSW 9 11 5 6 1016.2 1014.7 0.0
20/05:30am 14.5 - - - - S 9 11 5 6 1016.0 - 0.0
20/05:00am 15.2 - - - - S 9 11 5 6 1015.8 - 0.0
20/04:30am 15.6 - - - - S 9 11 5 6 1015.5 - 0.0
20/04:00am 16.5 - - - - S 11 13 6 7 1015.3 - 0.0
20/03:30am 16.4 - - - - S 9 11 5 6 1015.4 - 0.0
20/03:00am 17.0 - - - - S 9 11 5 6 1015.5 1014.0 0.0
20/02:30am 17.7 - - - - S 9 11 5 6 1015.7 - 0.0
20/02:00am 18.2 - - - - S 11 13 6 7 1015.9 - 0.0
20/01:30am 18.6 - - - - S 9 11 5 6 1016.2 - 0.0
20/01:00am 19.2 - - - - S 9 13 5 7 1016.2 - 0.0
20/12:30am 19.7 - - - - S 9 13 5 7 1016.3 - 0.0
20/12:00am 20.2 - - - - SSE 9 11 5 6 1016.3 1014.8 0.0
 
Date/Time
EST
Temp
°C
App
Temp
°C
Dew
Point
Rel
Hum
%
Delta-T
°C
Wind Press
QNH
hPa
Press
MSL
hPa
Rain
since 9 am
mm
Dir
 
Spd
km/h
Gust
km/h
Spd
kts
Gust
kts
19/11:30pm 21.2 - - - - S 11 13 6 7 1016.5 - 0.0
19/11:00pm 21.9 - - - - SSE 13 17 7 9 1016.6 - 0.0
19/10:30pm 22.3 - - - - S 13 17 7 9 1016.9 - 0.0
19/10:00pm 23.1 - - - - SSE 13 17 7 9 1016.6 - 0.0
19/09:30pm 22.9 - - - - S 13 15 7 8 1016.4 - 0.0
19/09:00pm 23.2 - - - - S 13 15 7 8 1016.3 1014.8 0.0
19/08:30pm 24.0 - - - - S 13 15 7 8 1016.0 - 0.0
19/08:00pm 24.6 - - - - S 11 15 6 8 1015.7 - 0.0
19/07:30pm 25.6 - - - - S 13 13 7 7 1015.3 - 0.0
19/07:00pm 26.8 - - - - SSE 13 17 7 9 1014.9 - 0.0
19/06:30pm 28.0 - - - - SSE 13 17 7 9 1014.6 - 0.0
19/06:00pm 29.6 - - - - S 19 24 10 13 1014.4 1012.8 0.0
19/05:30pm 30.4 - - - - SSE 17 24 9 13 1014.2 - 0.0
19/05:00pm 30.8 - - - - SSE 17 24 9 13 1014.1 - 0.0
19/04:30pm 31.4 - - - - S 15 22 8 12 1014.1 - 0.0
19/04:00pm 31.9 - - - - SSE 17 30 9 16 1014.1 - 0.0
19/03:30pm 31.8 - - - - SE 19 26 10 14 1014.1 - 0.0
19/03:00pm 31.5 - - - - SE 15 26 8 14 1014.3 1012.7 0.0
19/02:30pm 31.4 - - - - SE 13 26 7 14 1014.6 - 0.0
19/02:00pm 30.7 - - - - SE 15 26 8 14 1014.9 - 0.0
19/01:30pm 30.1 - - - - SE 17 26 9 14 1015.5 - 0.0
19/01:00pm 30.5 - - - - SE 19 32 10 17 1016.1 - 0.0
19/12:30pm 30.4 - - - - ESE 17 28 9 15 1016.6 - 0.0
19/12:00pm 29.3 - - - - SE 20 32 11 17 1017.3 1015.7 0.0
19/11:30am 29.2 - - - - ESE 22 35 12 19 1017.8 - 0.0
19/11:00am 28.8 - - - - ESE 24 35 13 19 1018.1 - 0.0
19/10:30am 27.8 - - - - ESE 24 32 13 17 1018.5 - 0.0
19/10:00am 26.7 - - - - ESE 24 35 13 19 1018.7 - 0.0
19/09:30am 25.4 - - - - ESE 22 30 12 16 1018.6 - 0.0
19/09:00am 23.5 - - - - ESE 19 26 10 14 1018.5 1017.0 0.0
19/08:30am 20.7 - - - - SE 13 17 7 9 1018.6 - 0.0
19/08:00am 17.7 - - - - SSE 6 9 3 5 1018.4 - 0.0
19/07:30am 15.0 - - - - S 7 9 4 5 1018.3 - 0.0
19/07:00am 12.6 - - - - S 7 9 4 5 1018.0 - 0.0
19/06:30am 13.0 - - - - SW 7 9 4 5 1017.8 - 0.0
19/06:00am 14.2 - - - - SW 11 11 6 6 1017.6 1016.0 0.0
19/05:30am 13.2 - - - - CALM 0 0 0 0 1017.4 - 0.0
19/05:00am 13.5 - - - - CALM 0 0 0 0 1017.2 - 0.0
19/04:30am 13.8 - - - - CALM 0 0 0 0 1017.2 - 0.0
19/04:00am 13.8 - - - - SSW 4 6 2 3 1017.2 - 0.0
19/03:30am 15.3 - - - - S 2 6 1 3 1017.3 - 0.0
19/03:00am 16.6 - - - - S 9 11 5 6 1017.4 1015.8 0.0
19/02:30am 17.2 - - - - S 9 11 5 6 1017.6 - 0.0
19/02:00am 17.8 - - - - S 11 11 6 6 1017.8 - 0.0
19/01:30am 18.2 - - - - S 11 13 6 7 1017.8 - 0.0
19/01:00am 18.5 - - - - S 9 11 5 6 1018.1 - 0.0
19/12:30am 19.0 - - - - S 9 13 5 7 1018.2 - 0.0
19/12:00am 19.5 - - - - S 11 13 6 7 1018.4 1016.9 0.0
 
Date/Time
EST
Temp
°C
App
Temp
°C
Dew
Point
Rel
Hum
%
Delta-T
°C
Wind Press
QNH
hPa
Press
MSL
hPa
Rain
since 9 am
mm
Dir
 
Spd
km/h
Gust
km/h
Spd
kts
Gust
kts
18/11:30pm 20.1 - - - - S 11 13 6 7 1018.4 - 0.0
18/11:00pm 20.9 - - - - S 11 13 6 7 1018.5 - 0.0
18/10:30pm 21.9 - - - - S 13 17 7 9 1018.5 - 0.0
18/10:00pm 22.2 - - - - S 11 15 6 8 1018.4 - 0.0
18/09:30pm 23.0 - - - - S 13 15 7 8 1018.3 - 0.0
18/09:00pm 23.6 - - - - S 11 15 6 8 1018.2 1016.7 0.0
18/08:30pm 24.6 - - - - S 13 15 7 8 1017.8 - 0.0
18/08:00pm 25.8 - - - - S 15 20 8 11 1017.5 - 0.0
18/07:30pm 26.1 - - - - S 13 19 7 10 1017.1 - 0.0
18/07:00pm 27.1 - - - - S 13 19 7 10 1016.6 - 0.0
18/06:30pm 28.2 - - - - SSE 17 26 9 14 1016.2 - 0.0
18/06:00pm 29.6 - - - - S 20 28 11 15 1015.9 1014.4 0.0
18/05:30pm 30.6 - - - - S 20 30 11 16 1015.7 - 0.0
18/05:00pm 31.1 - - - - SSE 19 26 10 14 1015.4 - 0.0
18/04:30pm 31.4 - - - - SSE 20 32 11 17 1015.2 - 0.0
18/04:00pm 31.7 - - - - SSE 20 30 11 16 1015.3 - 0.0
18/03:30pm 32.0 - - - - S 17 28 9 15 1015.2 - 0.0
18/03:00pm 31.8 - - - - S 17 24 9 13 1015.3 1013.8 0.0
18/02:30pm 31.4 - - - - S 19 30 10 16 1015.5 - 0.0
18/02:00pm 31.2 - - - - SSW 13 28 7 15 1015.7 - 0.0
18/01:30pm 31.6 - - - - S 19 28 10 15 1016.3 - 0.0
18/01:00pm 30.8 - - - - SE 17 24 9 13 1016.9 - 0.0
18/12:30pm 29.8 - - - - SSE 17 28 9 15 1017.3 - 0.0
18/12:00pm 30.1 - - - - ESE 17 28 9 15 1017.7 1016.1 0.0
18/11:30am 29.4 - - - - ESE 20 28 11 15 1017.9 - 0.0
18/11:00am 28.6 - - - - ESE 22 30 12 16 1018.3 - 0.0
18/10:30am 27.3 - - - - ESE 19 26 10 14 1018.5 - 0.0
18/10:00am 26.0 - - - - ESE 19 24 10 13 1018.6 - 0.0
18/09:30am 25.0 - - - - ESE 19 24 10 13 1018.6 - 0.0
18/09:00am 23.8 - - - - ESE 17 24 9 13 1018.4 1016.9 0.0
18/08:30am 21.9 - - - - SE 9 17 5 9 1018.4 - 0.0
18/08:00am 18.8 - - - - S 7 11 4 6 1018.3 - 0.0
18/07:30am 17.0 - - - - SSW 9 11 5 6 1018.0 - 0.0
18/07:00am 15.8 - - - - SSW 9 9 5 5 1017.9 - 0.0
18/06:30am 16.4 - - - - SSW 11 13 6 7 1017.7 - 0.0
18/06:00am 16.9 - - - - S 11 13 6 7 1017.4 1015.8 0.0
18/05:30am 17.1 - - - - SSW 11 13 6 7 1017.3 - 0.0
18/05:00am 17.4 - - - - S 9 9 5 5 1017.1 - 0.0
18/04:30am 18.3 - - - - S 9 11 5 6 1016.9 - 0.0
18/04:00am 18.7 - - - - S 11 13 6 7 1016.9 - 0.0
18/03:30am 19.7 - - - - SSE 13 15 7 8 1017.1 - 0.0
18/03:00am 20.0 - - - - SSE 11 13 6 7 1017.2 1015.6 0.0
18/02:30am 20.1 - - - - SE 11 13 6 7 1017.4 - 0.0
18/02:00am 21.4 - - - - SSE 15 20 8 11 1017.5 - 0.0
18/01:30am 22.1 - - - - SSE 17 22 9 12 1017.4 - 0.0
18/01:00am 22.4 - - - - SSE 17 22 9 12 1017.8 - 0.0
18/12:30am 22.4 - - - - S 15 19 8 10 1017.9 - 0.0
18/12:00am 22.8 - - - - S 13 17 7 9 1018.1 1016.6 0.0
 
Date/Time
EST
Temp
°C
App
Temp
°C
Dew
Point
Rel
Hum
%
Delta-T
°C
Wind Press
QNH
hPa
Press
MSL
hPa
Rain
since 9 am
mm
Dir
 
Spd
km/h
Gust
km/h
Spd
kts
Gust
kts
17/11:30pm 23.6 - - - - S 15 20 8 11 1018.0 - 0.0
17/11:00pm 23.9 - - - - S 15 19 8 10 1018.1 - 0.0
17/10:30pm 24.6 - - - - S 15 20 8 11 1018.2 - 0.0
17/10:00pm 25.3 - - - - S 17 22 9 12 1018.0 - 0.0
17/09:30pm 25.9 - - - - S 17 20 9 11 1017.9 - 0.0
17/09:00pm 26.1 - - - - S 15 19 8 10 1017.7 1016.1 0.0
17/08:30pm 26.7 - - - - S 13 17 7 9 1017.4 - 0.0
17/08:00pm 27.5 - - - - S 13 17 7 9 1017.0 - 0.0
17/07:30pm 28.3 - - - - S 17 22 9 12 1016.2 - 0.0
17/07:00pm 29.1 - - - - S 17 22 9 12 1015.7 - 0.0
17/06:30pm 29.6 - - - - S 15 19 8 10 1015.5 - 0.0
17/06:00pm 30.8 - - - - SSE 17 24 9 13 1015.1 1013.6 0.0
17/05:30pm 31.7 - - - - SSW 20 28 11 15 1014.9 - 0.0
17/05:00pm 32.2 - - - - S 17 26 9 14 1014.7 - 0.0

Other Formats:

Comma delimited format used in spreadsheet applications
http://www.bom.gov.au/fwo/IDQ60801/IDQ60801.94336.axf

JavaScript Object Notation format (JSON) in row-major order
http://www.bom.gov.au/fwo/IDQ60801/IDQ60801.94336.json